createdAt,value
2022-11-15T00:00:06.083Z,100850.00
2022-11-15T00:02:39.476Z,100849.00
2022-11-15T00:05:12.889Z,100836.00
2022-11-15T00:08:00.571Z,100845.00
2022-11-15T00:10:20.024Z,100837.00
2022-11-15T00:12:52.924Z,100846.00
2022-11-15T00:15:25.994Z,100846.00
2022-11-15T00:17:59.018Z,100837.00
2022-11-15T00:20:32.279Z,100838.00
2022-11-15T00:23:05.119Z,100845.00
2022-11-15T00:25:38.285Z,100827.00
2022-11-15T00:28:11.353Z,100829.00
2022-11-15T00:30:44.299Z,100823.00
2022-11-15T00:33:17.488Z,100836.00
2022-11-15T00:35:50.474Z,100826.00
2022-11-15T00:38:23.546Z,100835.00
2022-11-15T00:40:56.506Z,100829.00
2022-11-15T00:43:29.768Z,100828.00
2022-11-15T00:46:02.966Z,100823.00
2022-11-15T00:48:35.944Z,100826.00
2022-11-15T00:51:09.021Z,100822.00
2022-11-15T00:53:42.088Z,100820.00
2022-11-15T00:56:14.829Z,100819.00
2022-11-15T00:58:47.810Z,100818.00
2022-11-15T01:01:20.725Z,100822.00
2022-11-15T01:03:56.253Z,100827.00
2022-11-15T01:06:27.807Z,100825.00
2022-11-15T01:09:00.800Z,100819.00
2022-11-15T01:11:33.978Z,100816.00
2022-11-15T01:14:07.126Z,100814.00
2022-11-15T01:16:39.914Z,100822.00
2022-11-15T01:19:12.823Z,100814.00
2022-11-15T01:21:45.946Z,100821.00
2022-11-15T01:24:19.031Z,100821.00
2022-11-15T01:26:51.979Z,100825.00
2022-11-15T01:29:25.059Z,100827.00
2022-11-15T01:31:58.611Z,100812.00
2022-11-15T01:34:31.545Z,100821.00
2022-11-15T01:37:04.396Z,100824.00
2022-11-15T01:39:37.414Z,100821.00
2022-11-15T01:42:10.346Z,100818.00
2022-11-15T01:44:58.785Z,100818.00
2022-11-15T01:47:42.473Z,100811.00
2022-11-15T01:50:17.177Z,100811.00
2022-11-15T01:52:50.390Z,100796.00
2022-11-15T01:55:33.529Z,100806.00
2022-11-15T01:58:09.093Z,100793.00
2022-11-15T02:00:42.174Z,100808.00
2022-11-15T02:03:15.442Z,100796.00
2022-11-15T02:05:49.141Z,100803.00
2022-11-15T02:08:23.441Z,100799.00
2022-11-15T02:10:56.488Z,100787.00
2022-11-15T02:13:29.899Z,100780.00
2022-11-15T02:19:29.536Z,100783.00
2022-11-15T02:22:19.674Z,100781.00
2022-11-15T02:25:12.996Z,100782.00
2022-11-15T02:28:10.882Z,100775.00
2022-11-15T02:30:58.278Z,100772.00
2022-11-15T02:36:37.722Z,100782.00
2022-11-15T02:39:24.851Z,100776.00
2022-11-15T02:42:16.405Z,100773.00
2022-11-15T02:44:55.046Z,100768.00
2022-11-15T02:47:36.294Z,100763.00
2022-11-15T02:50:23.598Z,100759.00
2022-11-15T02:52:57.355Z,100759.00
2022-11-15T02:55:37.437Z,100750.00
2022-11-15T02:58:33.826Z,100753.00
2022-11-15T03:01:14.665Z,100747.00
2022-11-15T03:03:56.788Z,100747.00
2022-11-15T03:07:00.596Z,100757.00
2022-11-15T03:10:00.964Z,100749.00
2022-11-15T03:13:04.952Z,100755.00
2022-11-15T03:15:50.167Z,100754.00
2022-11-15T03:18:30.858Z,100749.00
2022-11-15T03:21:14.839Z,100748.00
2022-11-15T03:23:49.813Z,100755.00
2022-11-15T03:26:25.030Z,100752.00
2022-11-15T03:29:00.405Z,100754.00
2022-11-15T03:32:09.989Z,100755.00
2022-11-15T03:34:52.920Z,100751.00
2022-11-15T03:37:37.101Z,100758.00
2022-11-15T03:40:15.904Z,100750.00
2022-11-15T03:42:53.624Z,100760.00
2022-11-15T03:45:28.388Z,100754.00
2022-11-15T03:48:06.155Z,100760.00
2022-11-15T03:50:39.416Z,100748.00
2022-11-15T03:53:12.361Z,100743.00
2022-11-15T03:55:45.329Z,100738.00
2022-11-15T03:58:18.428Z,100731.00
2022-11-15T04:00:51.425Z,100744.00
2022-11-15T04:03:24.428Z,100742.00
2022-11-15T04:05:57.339Z,100742.00
2022-11-15T04:08:30.358Z,100740.00
2022-11-15T04:11:03.348Z,100740.00
2022-11-15T04:13:36.199Z,100744.00
2022-11-15T04:16:09.127Z,100750.00
2022-11-15T04:18:42.164Z,100739.00
2022-11-15T04:21:32.240Z,100745.00
2022-11-15T04:24:12.402Z,100734.00
2022-11-15T04:26:45.257Z,100739.00
2022-11-15T04:29:36.059Z,100740.00
2022-11-15T04:32:10.301Z,100732.00
2022-11-15T04:34:43.266Z,100732.00
2022-11-15T04:37:16.306Z,100729.00
2022-11-15T04:39:49.462Z,100741.00
2022-11-15T04:42:22.292Z,100735.00
2022-11-15T04:44:55.007Z,100727.00
2022-11-15T04:47:27.906Z,100740.00
2022-11-15T04:50:00.712Z,100738.00
2022-11-15T04:52:38.095Z,100743.00
2022-11-15T04:55:11.429Z,100745.00
2022-11-15T04:57:44.583Z,100741.00
2022-11-15T05:00:19.795Z,100739.00
2022-11-15T05:03:11.037Z,100751.00
2022-11-15T05:05:50.687Z,100750.00
2022-11-15T05:08:22.380Z,100747.00
2022-11-15T05:10:55.601Z,100740.00
2022-11-15T05:13:28.677Z,100731.00
2022-11-15T05:16:01.808Z,100736.00
2022-11-15T05:18:34.712Z,100734.00
2022-11-15T05:21:15.712Z,100731.00
2022-11-15T05:23:48.765Z,100737.00
2022-11-15T05:26:22.608Z,100734.00
2022-11-15T05:28:59.919Z,100735.00
2022-11-15T05:31:32.984Z,100728.00
2022-11-15T05:34:07.531Z,100739.00
2022-11-15T05:36:45.759Z,100733.00
2022-11-15T05:39:19.005Z,100739.00
2022-11-15T05:41:56.453Z,100740.00
2022-11-15T05:44:29.891Z,100736.00
2022-11-15T05:47:03.092Z,100739.00
2022-11-15T05:49:38.283Z,100744.00
2022-11-15T05:52:13.566Z,100750.00
2022-11-15T05:54:46.916Z,100752.00
2022-11-15T05:57:20.382Z,100756.00
2022-11-15T05:59:57.121Z,100763.00
2022-11-15T06:02:31.226Z,100760.00
2022-11-15T06:05:04.565Z,100769.00
2022-11-15T06:07:38.109Z,100767.00
2022-11-15T06:10:12.332Z,100781.00
2022-11-15T06:12:45.263Z,100781.00
2022-11-15T06:15:18.417Z,100784.00
2022-11-15T06:17:51.748Z,100775.00
2022-11-15T06:20:29.376Z,100773.00
2022-11-15T06:23:07.268Z,100780.00
2022-11-15T06:25:40.328Z,100787.00
2022-11-15T06:28:13.331Z,100790.00
2022-11-15T06:30:50.450Z,100800.00
2022-11-15T06:33:20.518Z,100796.00
2022-11-15T06:35:53.411Z,100799.00
2022-11-15T06:38:26.363Z,100802.00
2022-11-15T06:40:59.442Z,100799.00
2022-11-15T06:43:32.606Z,100805.00
2022-11-15T06:46:06.484Z,100805.00
2022-11-15T06:48:40.179Z,100800.00
2022-11-15T06:51:13.130Z,100800.00
2022-11-15T06:53:46.075Z,100805.00
2022-11-15T06:56:18.982Z,100807.00
2022-11-15T06:58:55.857Z,100814.00
2022-11-15T07:01:30.126Z,100812.00
2022-11-15T07:04:03.510Z,100818.00
2022-11-15T07:06:36.584Z,100817.00
2022-11-15T07:09:09.336Z,100811.00
2022-11-15T07:11:42.349Z,100821.00
2022-11-15T07:14:15.536Z,100826.00
2022-11-15T07:16:48.522Z,100826.00
2022-11-15T07:19:21.470Z,100824.00
2022-11-15T07:21:54.573Z,100831.00
2022-11-15T07:24:27.691Z,100831.00
2022-11-15T07:27:00.949Z,100833.00
2022-11-15T07:29:34.592Z,100839.00
2022-11-15T07:32:07.854Z,100844.00
2022-11-15T07:34:40.693Z,100838.00
2022-11-15T07:37:13.654Z,100833.00
2022-11-15T07:39:46.268Z,100831.00
2022-11-15T07:42:36.674Z,100826.00
2022-11-15T07:45:10.413Z,100827.00
2022-11-15T07:47:43.327Z,100824.00
2022-11-15T07:50:16.420Z,100830.00
2022-11-15T07:52:49.483Z,100832.00
2022-11-15T07:55:22.593Z,100820.00
2022-11-15T07:57:55.626Z,100820.00
2022-11-15T08:00:28.574Z,100829.00
2022-11-15T08:03:12.891Z,100827.00
2022-11-15T08:05:46.942Z,100829.00
2022-11-15T08:08:20.374Z,100828.00
2022-11-15T08:10:53.466Z,100835.00
2022-11-15T08:13:26.457Z,100835.00
2022-11-15T08:16:04.461Z,100838.00
2022-11-15T08:18:37.570Z,100846.00
2022-11-15T08:21:13.036Z,100835.00
2022-11-15T08:23:44.779Z,100844.00
2022-11-15T08:26:17.703Z,100844.00
2022-11-15T08:28:50.757Z,100844.00
2022-11-15T08:31:24.050Z,100847.00
2022-11-15T08:33:57.188Z,100850.00
2022-11-15T08:36:34.771Z,100848.00
2022-11-15T08:39:08.169Z,100851.00
2022-11-15T08:41:42.075Z,100861.00
2022-11-15T08:44:14.939Z,100861.00
2022-11-15T08:46:49.286Z,100860.00
2022-11-15T08:49:22.038Z,100853.00
2022-11-15T08:51:55.070Z,100851.00
2022-11-15T08:54:28.354Z,100854.00
2022-11-15T08:57:01.334Z,100853.00
2022-11-15T08:59:34.321Z,100861.00
2022-11-15T09:02:07.848Z,100858.00
2022-11-15T09:04:40.720Z,100860.00
2022-11-15T09:07:15.566Z,100859.00
2022-11-15T09:09:48.596Z,100858.00
2022-11-15T09:12:21.375Z,100856.00
2022-11-15T09:14:54.698Z,100862.00
2022-11-15T09:17:27.683Z,100866.00
2022-11-15T09:20:00.721Z,100865.00
2022-11-15T09:22:33.730Z,100869.00
2022-11-15T09:25:10.029Z,100872.00
2022-11-15T09:27:41.072Z,100876.00
2022-11-15T09:30:14.745Z,100878.00
2022-11-15T09:32:47.699Z,100880.00
2022-11-15T09:35:20.789Z,100884.00
2022-11-15T09:37:56.281Z,100883.00
2022-11-15T09:40:29.241Z,100880.00
2022-11-15T09:43:07.417Z,100879.00
2022-11-15T09:46:00.004Z,100874.00
2022-11-15T09:48:40.704Z,100880.00
2022-11-15T09:51:15.602Z,100876.00
2022-11-15T09:56:29.174Z,100883.00
2022-11-15T09:59:19.254Z,100885.00
2022-11-15T10:02:00.536Z,100884.00
2022-11-15T10:04:33.709Z,100890.00
2022-11-15T10:07:08.779Z,100886.00
2022-11-15T10:09:46.562Z,100885.00
2022-11-15T10:12:20.281Z,100881.00
2022-11-15T10:14:56.094Z,100880.00
2022-11-15T10:17:34.074Z,100879.00
2022-11-15T10:20:26.889Z,100882.00
2022-11-15T10:23:01.977Z,100873.00
2022-11-15T10:25:36.171Z,100874.00
2022-11-15T10:28:19.785Z,100871.00
2022-11-15T10:30:57.878Z,100866.00
2022-11-15T10:33:36.798Z,100864.00
2022-11-15T10:36:17.915Z,100857.00
2022-11-15T10:38:56.192Z,100853.00
2022-11-15T10:41:37.586Z,100844.00
2022-11-15T10:44:24.557Z,100839.00
2022-11-15T10:47:05.628Z,100844.00
2022-11-15T10:49:39.426Z,100844.00
2022-11-15T10:52:20.799Z,100837.00
2022-11-15T10:55:07.783Z,100844.00
2022-11-15T10:57:42.783Z,100847.00
2022-11-15T11:00:32.976Z,100850.00
2022-11-15T11:03:30.455Z,100844.00
2022-11-15T11:06:15.897Z,100828.00
2022-11-15T11:09:03.783Z,100832.00
2022-11-15T11:11:53.396Z,100822.00
2022-11-15T11:14:34.396Z,100805.00
2022-11-15T11:17:09.511Z,100808.00
2022-11-15T11:19:44.699Z,100791.00
2022-11-15T11:22:28.750Z,100799.00
2022-11-15T11:25:22.359Z,100803.00
2022-11-15T11:28:03.736Z,100797.00
2022-11-15T11:31:01.408Z,100800.00
2022-11-15T11:33:55.482Z,100797.00
2022-11-15T11:36:33.527Z,100792.00
2022-11-15T11:39:32.537Z,100801.00
2022-11-15T11:42:28.222Z,100798.00
2022-11-15T11:45:11.612Z,100797.00
2022-11-15T11:47:46.516Z,100791.00
2022-11-15T11:50:24.547Z,100789.00
2022-11-15T11:53:10.165Z,100785.00
2022-11-15T11:55:50.395Z,100780.00
2022-11-15T11:58:25.383Z,100772.00
2022-11-15T12:01:04.064Z,100775.00
2022-11-15T12:03:45.761Z,100782.00
2022-11-15T12:06:29.207Z,100771.00
2022-11-15T12:09:20.136Z,100763.00
2022-11-15T12:12:01.487Z,100770.00
2022-11-15T12:14:36.631Z,100774.00
2022-11-15T12:17:09.787Z,100774.00
2022-11-15T12:19:43.258Z,100781.00
2022-11-15T12:22:27.185Z,100778.00
2022-11-15T12:25:05.074Z,100773.00
2022-11-15T12:27:40.390Z,100766.00
2022-11-15T12:30:24.854Z,100760.00
2022-11-15T12:33:07.453Z,100770.00
2022-11-15T12:35:42.205Z,100759.00
2022-11-15T12:38:19.670Z,100753.00
2022-11-15T12:41:23.093Z,100757.00
2022-11-15T12:43:56.043Z,100752.00
2022-11-15T12:46:40.034Z,100753.00
2022-11-15T12:49:30.005Z,100757.00
2022-11-15T12:52:08.286Z,100748.00
2022-11-15T12:54:49.915Z,100754.00
2022-11-15T12:57:33.848Z,100753.00
2022-11-15T13:00:11.961Z,100749.00
2022-11-15T13:02:50.482Z,100746.00
2022-11-15T13:05:25.543Z,100750.00
2022-11-15T13:08:03.422Z,100750.00
2022-11-15T13:10:39.696Z,100749.00
2022-11-15T13:13:15.531Z,100748.00
2022-11-15T13:16:02.605Z,100738.00
2022-11-15T13:18:37.467Z,100738.00
2022-11-15T13:21:13.537Z,100740.00
2022-11-15T13:23:46.501Z,100733.00
2022-11-15T13:26:20.334Z,100740.00
2022-11-15T13:28:56.011Z,100729.00
2022-11-15T13:31:35.467Z,100724.00
2022-11-15T13:34:36.047Z,100723.00
2022-11-15T13:36:44.621Z,100720.00
2022-11-15T13:39:34.971Z,100710.00
2022-11-15T13:42:07.957Z,100702.00
2022-11-15T13:44:40.899Z,100707.00
2022-11-15T13:47:18.484Z,100707.00
2022-11-15T13:49:51.647Z,100707.00
2022-11-15T13:52:25.452Z,100703.00
2022-11-15T13:55:00.283Z,100696.00
2022-11-15T13:57:38.091Z,100694.00
2022-11-15T14:00:13.109Z,100685.00
2022-11-15T14:02:46.337Z,100702.00
2022-11-15T14:05:24.702Z,100685.00
2022-11-15T14:08:20.496Z,100687.00
2022-11-15T14:10:53.400Z,100636.00
2022-11-15T14:13:36.603Z,100678.00
2022-11-15T14:16:29.994Z,100674.00
2022-11-15T14:19:03.052Z,100671.00
2022-11-15T14:21:36.301Z,100676.00
2022-11-15T14:24:23.513Z,100686.00
2022-11-15T14:26:56.588Z,100693.00
2022-11-15T14:29:30.706Z,100683.00
2022-11-15T14:32:20.378Z,100688.00
2022-11-15T14:35:00.740Z,100678.00
2022-11-15T14:37:38.512Z,100681.00
2022-11-15T14:40:13.078Z,100684.00
2022-11-15T14:42:46.315Z,100682.00
2022-11-15T14:45:20.878Z,100686.00
2022-11-15T14:47:53.871Z,100691.00
2022-11-15T14:50:27.052Z,100699.00
2022-11-15T14:53:00.173Z,100704.00
2022-11-15T14:55:42.646Z,100703.00
2022-11-15T14:58:16.076Z,100703.00
2022-11-15T15:00:49.048Z,100689.00
2022-11-15T15:03:22.070Z,100686.00
2022-11-15T15:05:54.965Z,100682.00
2022-11-15T15:08:28.042Z,100671.00
2022-11-15T15:11:01.728Z,100675.00
2022-11-15T15:13:34.638Z,100682.00
2022-11-15T15:16:07.603Z,100681.00
2022-11-15T15:18:40.869Z,100674.00
2022-11-15T15:21:36.878Z,100678.00
2022-11-15T15:24:05.894Z,100672.00
2022-11-15T15:26:39.364Z,100668.00
2022-11-15T15:29:12.362Z,100672.00
2022-11-15T15:31:45.458Z,100678.00
2022-11-15T15:34:18.583Z,100671.00
2022-11-15T15:36:51.563Z,100669.00
2022-11-15T15:39:24.542Z,100661.00
2022-11-15T15:41:57.628Z,100664.00
2022-11-15T15:44:30.703Z,100668.00
2022-11-15T15:47:03.688Z,100668.00
2022-11-15T15:49:36.934Z,100662.00
2022-11-15T15:52:10.098Z,100664.00
2022-11-15T15:54:43.275Z,100677.00
2022-11-15T15:57:18.005Z,100670.00
2022-11-15T15:59:51.059Z,100661.00
2022-11-15T16:02:24.063Z,100674.00
2022-11-15T16:04:57.037Z,100680.00
2022-11-15T16:07:32.487Z,100672.00
2022-11-15T16:10:05.467Z,100667.00
2022-11-15T16:12:39.769Z,100661.00
2022-11-15T16:15:13.824Z,100659.00
2022-11-15T16:17:49.025Z,100657.00
2022-11-15T16:20:46.595Z,100672.00
2022-11-15T16:23:22.788Z,100674.00
2022-11-15T16:25:58.805Z,100677.00
2022-11-15T16:28:36.404Z,100675.00
2022-11-15T16:31:11.558Z,100681.00
2022-11-15T16:33:45.052Z,100681.00
2022-11-15T16:36:32.220Z,100677.00
2022-11-15T16:39:06.791Z,100675.00
2022-11-15T16:41:40.056Z,100680.00
2022-11-15T16:44:13.460Z,100674.00
2022-11-15T16:46:51.050Z,100686.00
2022-11-15T16:49:25.321Z,100686.00
2022-11-15T16:51:58.501Z,100685.00
2022-11-15T16:54:31.594Z,100695.00
2022-11-15T16:57:04.603Z,100696.00
2022-11-15T16:59:38.569Z,100692.00
2022-11-15T17:02:13.664Z,100700.00
2022-11-15T17:04:46.594Z,100706.00
2022-11-15T17:07:19.623Z,100700.00
2022-11-15T17:09:52.541Z,100706.00
2022-11-15T17:12:26.149Z,100703.00
2022-11-15T17:14:59.322Z,100709.00
2022-11-15T17:17:32.510Z,100701.00
2022-11-15T17:20:06.469Z,100704.00
2022-11-15T17:22:42.576Z,100701.00
2022-11-15T17:25:18.390Z,100708.00
2022-11-15T17:27:51.719Z,100712.00
2022-11-15T17:30:25.006Z,100710.00
2022-11-15T17:32:58.748Z,100716.00
2022-11-15T17:35:31.862Z,100720.00
2022-11-15T17:38:04.831Z,100722.00
2022-11-15T17:40:37.804Z,100720.00
2022-11-15T17:43:11.242Z,100728.00
2022-11-15T17:45:45.233Z,100720.00
2022-11-15T17:48:18.440Z,100732.00
2022-11-15T17:50:58.897Z,100729.00
2022-11-15T17:53:33.161Z,100731.00
2022-11-15T17:56:13.595Z,100736.00
2022-11-15T17:58:47.846Z,100734.00
2022-11-15T18:01:25.959Z,100742.00
2022-11-15T18:03:59.264Z,100732.00
2022-11-15T18:06:33.440Z,100739.00
2022-11-15T18:09:07.462Z,100748.00
2022-11-15T18:11:42.952Z,100740.00
2022-11-15T18:14:19.612Z,100742.00
2022-11-15T18:16:53.036Z,100745.00
2022-11-15T18:19:26.112Z,100740.00
2022-11-15T18:21:59.170Z,100737.00
2022-11-15T18:24:37.208Z,100738.00
2022-11-15T18:27:10.960Z,100736.00
2022-11-15T18:29:43.991Z,100734.00
2022-11-15T18:32:18.032Z,100734.00
2022-11-15T18:34:50.945Z,100739.00
2022-11-15T18:37:23.936Z,100733.00
2022-11-15T18:39:56.886Z,100741.00
2022-11-15T18:42:29.860Z,100727.00
2022-11-15T18:45:03.790Z,100727.00
2022-11-15T18:47:36.814Z,100724.00
2022-11-15T18:50:10.542Z,100734.00
2022-11-15T18:52:43.642Z,100735.00
2022-11-15T18:55:16.497Z,100732.00
2022-11-15T18:57:49.546Z,100739.00
2022-11-15T19:00:23.318Z,100736.00
2022-11-15T19:03:03.103Z,100740.00
2022-11-15T19:05:37.251Z,100737.00
2022-11-15T19:08:10.402Z,100741.00
2022-11-15T19:10:43.496Z,100731.00
2022-11-15T19:13:16.369Z,100743.00
2022-11-15T19:15:49.822Z,100742.00
2022-11-15T19:18:27.158Z,100739.00
2022-11-15T19:21:00.634Z,100742.00
2022-11-15T19:23:35.119Z,100737.00
2022-11-15T19:26:09.245Z,100744.00
2022-11-15T19:28:42.233Z,100741.00
2022-11-15T19:31:19.230Z,100744.00
2022-11-15T19:33:52.551Z,100741.00
2022-11-15T19:36:28.452Z,100750.00
2022-11-15T19:39:01.319Z,100738.00
2022-11-15T19:41:34.565Z,100742.00
2022-11-15T19:44:07.638Z,100751.00
2022-11-15T19:46:40.850Z,100747.00
2022-11-15T19:49:14.227Z,100732.00
2022-11-15T19:51:48.602Z,100747.00
2022-11-15T19:54:21.589Z,100753.00
2022-11-15T19:56:54.971Z,100742.00
2022-11-15T19:59:27.853Z,100745.00
2022-11-15T20:02:00.890Z,100754.00
2022-11-15T20:04:33.891Z,100747.00
2022-11-15T20:07:07.126Z,100760.00
2022-11-15T20:09:40.379Z,100757.00
2022-11-15T20:12:13.440Z,100755.00
2022-11-15T20:14:47.922Z,100758.00
2022-11-15T20:17:23.472Z,100752.00
2022-11-15T20:19:56.527Z,100752.00
2022-11-15T20:22:29.571Z,100757.00
2022-11-15T20:25:02.485Z,100750.00
2022-11-15T20:27:35.578Z,100751.00
2022-11-15T20:30:08.586Z,100757.00
2022-11-15T20:32:41.635Z,100742.00
2022-11-15T20:35:14.884Z,100745.00
2022-11-15T20:37:47.866Z,100746.00
2022-11-15T20:40:21.081Z,100733.00
2022-11-15T20:42:59.257Z,100733.00
2022-11-15T20:45:32.185Z,100729.00
2022-11-15T20:48:05.190Z,100741.00
2022-11-15T20:50:44.868Z,100733.00
2022-11-15T20:53:12.394Z,100737.00
2022-11-15T20:55:54.459Z,100738.00
2022-11-15T20:58:28.767Z,100748.00
2022-11-15T21:01:01.951Z,100735.00
2022-11-15T21:03:35.132Z,100739.00
2022-11-15T21:06:08.772Z,100744.00
2022-11-15T21:09:00.353Z,100738.00
2022-11-15T21:11:51.494Z,100740.00
2022-11-15T21:14:24.723Z,100729.00
2022-11-15T21:16:57.929Z,100724.00
2022-11-15T21:19:35.506Z,100732.00
2022-11-15T21:22:05.035Z,100724.00
2022-11-15T21:24:38.262Z,100726.00
2022-11-15T21:27:11.273Z,100719.00
2022-11-15T21:29:45.562Z,100717.00
2022-11-15T21:32:18.774Z,100721.00
2022-11-15T21:34:51.948Z,100726.00
2022-11-15T21:37:25.015Z,100722.00
2022-11-15T21:39:58.067Z,100720.00
2022-11-15T21:42:31.247Z,100726.00
2022-11-15T21:45:04.213Z,100720.00
2022-11-15T21:47:38.396Z,100713.00
2022-11-15T21:50:12.333Z,100711.00
2022-11-15T21:52:45.522Z,100713.00
2022-11-15T21:55:18.565Z,100724.00
2022-11-15T21:57:51.958Z,100719.00
2022-11-15T22:00:42.676Z,100725.00
2022-11-15T22:03:16.623Z,100717.00
2022-11-15T22:05:49.757Z,100708.00
2022-11-15T22:08:22.705Z,100709.00
2022-11-15T22:10:55.579Z,100709.00
2022-11-15T22:13:31.601Z,100708.00
2022-11-15T22:16:04.699Z,100707.00
2022-11-15T22:18:39.497Z,100713.00
2022-11-15T22:21:14.194Z,100717.00
2022-11-15T22:23:47.662Z,100713.00
2022-11-15T22:26:23.698Z,100711.00
2022-11-15T22:28:56.437Z,100720.00
2022-11-15T22:31:29.442Z,100709.00
2022-11-15T22:34:02.404Z,100707.00
2022-11-15T22:36:52.313Z,100701.00
2022-11-15T22:39:09.800Z,100698.00
2022-11-15T22:41:42.769Z,100699.00
2022-11-15T22:44:15.769Z,100702.00
2022-11-15T22:46:48.737Z,100698.00
2022-11-15T22:49:21.758Z,100703.00
2022-11-15T22:51:54.685Z,100695.00
2022-11-15T22:54:27.765Z,100695.00
2022-11-15T22:57:00.568Z,100704.00
2022-11-15T22:59:33.525Z,100692.00
2022-11-15T23:02:06.605Z,100693.00
2022-11-15T23:04:39.514Z,100693.00
2022-11-15T23:07:13.789Z,100684.00
2022-11-15T23:09:51.802Z,100682.00
2022-11-15T23:15:33.311Z,100674.00
2022-11-15T23:18:09.840Z,100674.00
2022-11-15T23:20:48.477Z,100677.00
2022-11-15T23:23:28.097Z,100670.00
2022-11-15T23:26:08.019Z,100660.00
2022-11-15T23:28:50.258Z,100667.00
2022-11-15T23:31:44.140Z,100660.00
2022-11-15T23:34:27.050Z,100662.00
2022-11-15T23:39:50.247Z,100660.00
2022-11-15T23:42:28.212Z,100650.00
2022-11-15T23:45:03.308Z,100652.00
2022-11-15T23:47:37.853Z,100657.00
2022-11-15T23:53:03.985Z,100646.00
2022-11-15T23:55:42.033Z,100646.00
